Погода Борборемана 2 недели

Сан-Паулу, Бразилия

21 июля-02 августа
  • 21июля
    Сегодня
    +16°
    +32°
    Ясно и безоблачно
    ВремяПогодаТемператураВлажностьДавлениеВетер, м/сВероятность осадков
    00:00Ясно и безоблачно+19°C46 %726 мм3.2 м/с5 %
    03:00Ясно и безоблачно+16°C64 %726 мм3.5 м/с5 %
    06:00Ясно и безоблачно+16°C72 %725 мм2.7 м/с5 %
    09:00Ясно и безоблачно+20°C55 %727 мм2.1 м/с5 %
    12:00Ясно и безоблачно+28°C37 %727 мм1.3 м/с5 %
    15:00Ясно и безоблачно+31°C29 %725 мм0.1 м/с5 %
    18:00Ясно и безоблачно+27°C45 %725 мм2.0 м/с5 %
    21:00Ясно и безоблачно+25°C51 %726 мм3.0 м/с5 %
  • 22июля
    Понедельник
    +16°
    +31°
    Ясно и безоблачно
    ВремяПогодаТемператураВлажностьДавлениеВетер, м/сВероятность осадков
    00:00Ясно и безоблачно+21°C63 %727 мм3.0 м/с5 %
    03:00Ясно и безоблачно+19°C62 %725 мм2.5 м/с5 %
    06:00Ясно и безоблачно+18°C76 %726 мм1.9 м/с5 %
    09:00Ясно и безоблачно+21°C57 %728 мм1.5 м/с5 %
    12:00Ясно и безоблачно+29°C33 %728 мм0.6 м/с5 %
    15:00Ясно и безоблачно+31°C27 %726 мм1.4 м/с5 %
    18:00Ясно и безоблачно+27°C36 %726 мм2.4 м/с5 %
    21:00Ясно и безоблачно+24°C51 %727 мм2.2 м/с5 %
  • 23июля
    Вторник
    +17°
    +32°
    Практически безоблачно
    ВремяПогодаТемператураВлажностьДавлениеВетер, м/сВероятность осадков
    00:00Ясно и безоблачно+20°C55 %727 мм2.5 м/с5 %
    03:00Ясно и безоблачно+18°C66 %726 мм2.8 м/с5 %
    06:00Ясно и безоблачно+18°C82 %727 мм2.5 м/с5 %
    09:00Ясно и безоблачно+21°C63 %729 мм2.9 м/с5 %
    12:00Ясно и безоблачно+29°C36 %729 мм2.0 м/с5 %
    15:00Практически безоблачно+31°C26 %727 мм0.6 м/с5 %
    18:00Небольшая облачность+30°C34 %726 мм1.2 м/с5 %
    21:00Ясно и безоблачно+25°C53 %727 мм3.4 м/с5 %
  • 24июля
    Среда
    +18°
    +32°
    Небольшая облачность
    ВремяПогодаТемператураВлажностьДавлениеВетер, м/сВероятность осадков
    00:00Ясно и безоблачно+21°C59 %727 мм2.7 м/с5 %
    03:00Практически безоблачно+18°C61 %726 мм2.5 м/с5 %
    06:00Небольшая облачность+18°C65 %726 мм2.2 м/с5 %
    09:00Практически безоблачно+21°C48 %728 мм1.9 м/с5 %
    12:00Ясно и безоблачно+29°C33 %728 мм1.9 м/с5 %
    15:00Небольшая облачность+32°C26 %726 мм1.1 м/с5 %
    18:00Небольшая облачность+28°C34 %726 мм1.9 м/с5 %
    21:00Практически безоблачно+25°C42 %726 мм2.1 м/с5 %
Мы используем cookies
Соглашаюсь